Impacts METAR Board INFO
IDs:

KMSP - Minneapolis-St Paul, MN, US

Updated at: 0855 UTC 22 Feb 2018
Potential Impact None Slight Moderate High
Time21/20Z 21/21Z 21/22Z 21/23Z 22/00Z 22/01Z 22/02Z 22/03Z 22/04Z 22/05Z 22/06Z 22/07Z 22/08Z
VIS10 10 10 10 10 10 10 10 10 10
CIG-- -- -- -- -- 300 300 300 300 300
CoverFEWFEWSCTSCTSCTBKNBKNBKNBKNBKN
FltCatVFRVFRVFRVFRVFRVFRVFRVFRVFRVFR
WX--------------------
WDir2002302302302201800140400
WSpd6 7 6 6 6 4 0 4 4 0
WGst-- -- -- -- -- -- -- -- -- --
Raw hourly METARs
KMSP 211953Z 20006KT 10SM FEW300 M08/M15 A3062 RMK AO2 SLP390 T10831150
KMSP 212053Z 23007KT 10SM FEW300 M08/M16 A3063 RMK AO2 SLP393 T10781161 55002
KMSP 212153Z 23006KT 10SM SCT300 M07/M16 A3063 RMK AO2 SLP393 T10721161
KMSP 212253Z 23006KT 10SM SCT300 M07/M17 A3064 RMK AO2 SLP394 T10721167
KMSP 212353Z 22006KT 10SM SCT300 M08/M16 A3064 RMK AO2 SLP395 4/002 T10781161 11072 21100 53002



KMSP 220353Z 18004KT 10SM BKN300 M09/M15 A3065 RMK AO2 SLP399 T10941150
KMSP 220453Z 00000KT 10SM BKN300 M11/M15 A3064 RMK AO2 SLP395 T11061150
KMSP 220553Z 14004KT 10SM BKN300 M12/M15 A3062 RMK AO2 SLP390 4/002 T11221150 11067 21122 410671167 58006
KMSP 220653Z 04004KT 10SM BKN300 M13/M15 A3062 RMK AO2 SLP387 T11281150
KMSP 220753Z 00000KT 10SM SCT140 BKN300 M12/M15 A3062 RMK AO2 SLP389 T11221150